sensor_id;sensor_type;location;lat;lon;timestamp;temperature;humidity
27368;DHT22;14839;48.106;11.618;2023-08-17T04:00:50;17.90;94.60
27368;DHT22;14839;48.106;11.618;2023-08-17T04:03:16;17.80;94.60
27368;DHT22;14839;48.106;11.618;2023-08-17T04:05:42;17.60;94.60
27368;DHT22;14839;48.106;11.618;2023-08-17T04:08:08;17.60;94.60
27368;DHT22;14839;48.106;11.618;2023-08-17T04:10:34;17.70;94.60
27368;DHT22;14839;48.106;11.618;2023-08-17T04:12:59;17.70;94.60
27368;DHT22;14839;48.106;11.618;2023-08-17T04:15:25;17.80;94.60
27368;DHT22;14839;48.106;11.618;2023-08-17T04:17:50;17.80;94.60
27368;DHT22;14839;48.106;11.618;2023-08-17T04:20:16;17.80;94.60
27368;DHT22;14839;48.106;11.618;2023-08-17T04:22:43;17.80;94.60
27368;DHT22;14839;48.106;11.618;2023-08-17T04:25:09;17.80;94.60
27368;DHT22;14839;48.106;11.618;2023-08-17T04:27:35;17.80;94.60
27368;DHT22;14839;48.106;11.618;2023-08-17T04:30:00;17.70;94.60
27368;DHT22;14839;48.106;11.618;2023-08-17T04:32:26;17.70;94.60
27368;DHT22;14839;48.106;11.618;2023-08-17T04:34:52;17.80;94.60
27368;DHT22;14839;48.106;11.618;2023-08-17T04:37:17;17.80;94.60
27368;DHT22;14839;48.106;11.618;2023-08-17T04:39:43;17.80;94.60
27368;DHT22;14839;48.106;11.618;2023-08-17T04:42:09;17.80;94.60
27368;DHT22;14839;48.106;11.618;2023-08-17T04:44:35;17.80;94.60
27368;DHT22;14839;48.106;11.618;2023-08-17T04:47:01;17.80;94.60
27368;DHT22;14839;48.106;11.618;2023-08-17T04:49:26;17.80;94.60
27368;DHT22;14839;48.106;11.618;2023-08-17T04:51:52;17.80;94.60
27368;DHT22;14839;48.106;11.618;2023-08-17T04:54:18;17.80;94.60
27368;DHT22;14839;48.106;11.618;2023-08-17T04:56:43;17.90;94.60
27368;DHT22;14839;48.106;11.618;2023-08-17T04:59:09;18.20;94.60
27368;DHT22;14839;48.106;11.618;2023-08-17T05:01:35;18.80;94.60
27368;DHT22;14839;48.106;11.618;2023-08-17T05:04:01;19.60;94.60
27368;DHT22;14839;48.106;11.618;2023-08-17T05:06:28;20.30;94.60
27368;DHT22;14839;48.106;11.618;2023-08-17T05:08:54;21.00;94.60
27368;DHT22;14839;48.106;11.618;2023-08-17T05:11:19;21.70;94.60
27368;DHT22;14839;48.106;11.618;2023-08-17T05:13:45;22.30;94.60
27368;DHT22;14839;48.106;11.618;2023-08-17T05:16:10;22.60;93.90
27368;DHT22;14839;48.106;11.618;2023-08-17T05:18:36;22.90;94.10
27368;DHT22;14839;48.106;11.618;2023-08-17T05:21:01;23.40;92.10
27368;DHT22;14839;48.106;11.618;2023-08-17T05:23:27;23.80;90.60
27368;DHT22;14839;48.106;11.618;2023-08-17T05:25:53;24.30;89.60
27368;DHT22;14839;48.106;11.618;2023-08-17T05:28:18;24.60;88.10
27368;DHT22;14839;48.106;11.618;2023-08-17T05:30:44;24.90;86.80
27368;DHT22;14839;48.106;11.618;2023-08-17T05:33:09;25.20;85.60
27368;DHT22;14839;48.106;11.618;2023-08-17T05:35:35;25.60;83.50
27368;DHT22;14839;48.106;11.618;2023-08-17T05:38:00;25.80;83.00
27368;DHT22;14839;48.106;11.618;2023-08-17T05:40:28;26.00;82.10
27368;DHT22;14839;48.106;11.618;2023-08-17T05:42:54;26.30;81.80
27368;DHT22;14839;48.106;11.618;2023-08-17T05:45:20;26.50;80.30
27368;DHT22;14839;48.106;11.618;2023-08-17T05:47:45;26.70;80.80
27368;DHT22;14839;48.106;11.618;2023-08-17T05:50:11;27.10;79.60
27368;DHT22;14839;48.106;11.618;2023-08-17T05:52:36;27.30;79.10
27368;DHT22;14839;48.106;11.618;2023-08-17T05:55:02;27.60;77.50
27368;DHT22;14839;48.106;11.618;2023-08-17T05:57:27;27.80;77.20
27368;DHT22;14839;48.106;11.618;2023-08-17T05:59:53;28.10;75.50
27368;DHT22;14839;48.106;11.618;2023-08-17T06:02:19;28.00;76.30
27368;DHT22;14839;48.106;11.618;2023-08-17T06:04:44;28.40;75.70
27368;DHT22;14839;48.106;11.618;2023-08-17T06:07:10;28.60;74.80
27368;DHT22;14839;48.106;11.618;2023-08-17T06:09:35;28.70;75.20
27368;DHT22;14839;48.106;11.618;2023-08-17T06:12:01;29.10;71.80
27368;DHT22;14839;48.106;11.618;2023-08-17T06:14:26;29.40;72.20
27368;DHT22;14839;48.106;11.618;2023-08-17T06:16:52;29.60;73.40
27368;DHT22;14839;48.106;11.618;2023-08-17T06:19:17;29.80;71.00
27368;DHT22;14839;48.106;11.618;2023-08-17T06:21:43;29.90;70.10
27368;DHT22;14839;48.106;11.618;2023-08-17T06:24:08;30.10;68.90
27368;DHT22;14839;48.106;11.618;2023-08-17T06:26:34;30.10;67.40
27368;DHT22;14839;48.106;11.618;2023-08-17T06:29:00;29.90;71.20
27368;DHT22;14839;48.106;11.618;2023-08-17T06:31:25;30.10;69.10
27368;DHT22;14839;48.106;11.618;2023-08-17T06:33:53;30.30;66.80
27368;DHT22;14839;48.106;11.618;2023-08-17T06:36:19;30.20;68.30
27368;DHT22;14839;48.106;11.618;2023-08-17T06:38:44;30.20;67.90
27368;DHT22;14839;48.106;11.618;2023-08-17T06:41:10;30.10;67.90
27368;DHT22;14839;48.106;11.618;2023-08-17T06:43:36;30.10;68.80
27368;DHT22;14839;48.106;11.618;2023-08-17T06:46:01;30.00;68.90
27368;DHT22;14839;48.106;11.618;2023-08-17T06:48:27;30.10;69.20
27368;DHT22;14839;48.106;11.618;2023-08-17T06:50:53;30.60;66.50
27368;DHT22;14839;48.106;11.618;2023-08-17T06:53:18;30.20;68.80
27368;DHT22;14839;48.106;11.618;2023-08-17T06:55:44;30.00;69.20
27368;DHT22;14839;48.106;11.618;2023-08-17T06:58:10;29.80;70.90
27368;DHT22;14839;48.106;11.618;2023-08-17T07:00:35;30.10;69.20
27368;DHT22;14839;48.106;11.618;2023-08-17T07:03:01;30.60;65.90
27368;DHT22;14839;48.106;11.618;2023-08-17T07:05:27;30.60;68.20
27368;DHT22;14839;48.106;11.618;2023-08-17T07:07:53;30.30;68.60
27368;DHT22;14839;48.106;11.618;2023-08-17T07:10:19;30.00;70.10
27368;DHT22;14839;48.106;11.618;2023-08-17T07:12:44;30.30;71.80
27368;DHT22;14839;48.106;11.618;2023-08-17T07:15:10;30.50;69.20
27368;DHT22;14839;48.106;11.618;2023-08-17T07:17:36;30.40;66.20
27368;DHT22;14839;48.106;11.618;2023-08-17T07:20:03;30.40;66.20
27368;DHT22;14839;48.106;11.618;2023-08-17T07:22:29;30.50;67.70
27368;DHT22;14839;48.106;11.618;2023-08-17T07:24:55;30.70;67.30
27368;DHT22;14839;48.106;11.618;2023-08-17T07:27:21;30.90;66.50
27368;DHT22;14839;48.106;11.618;2023-08-17T07:29:46;30.70;66.80
27368;DHT22;14839;48.106;11.618;2023-08-17T07:32:12;29.80;68.80
27368;DHT22;14839;48.106;11.618;2023-08-17T07:34:37;30.00;68.90
27368;DHT22;14839;48.106;11.618;2023-08-17T07:37:06;30.30;68.90
27368;DHT22;14839;48.106;11.618;2023-08-17T07:39:32;30.80;68.90
27368;DHT22;14839;48.106;11.618;2023-08-17T07:41:57;31.00;65.90
27368;DHT22;14839;48.106;11.618;2023-08-17T07:44:23;30.90;67.60
27368;DHT22;14839;48.106;11.618;2023-08-17T07:46:49;31.00;67.70
27368;DHT22;14839;48.106;11.618;2023-08-17T07:49:14;31.10;66.10
27368;DHT22;14839;48.106;11.618;2023-08-17T07:51:40;30.70;66.80
27368;DHT22;14839;48.106;11.618;2023-08-17T07:54:05;30.40;67.70
27368;DHT22;14839;48.106;11.618;2023-08-17T07:56:31;30.90;67.30
27368;DHT22;14839;48.106;11.618;2023-08-17T07:58:57;30.60;68.50
27368;DHT22;14839;48.106;11.618;2023-08-17T08:01:22;30.90;67.70
27368;DHT22;14839;48.106;11.618;2023-08-17T08:03:48;29.40;69.70
27368;DHT22;14839;48.106;11.618;2023-08-17T08:06:14;29.70;70.00
27368;DHT22;14839;48.106;11.618;2023-08-17T08:08:40;30.30;70.90
27368;DHT22;14839;48.106;11.618;2023-08-17T08:11:06;30.70;68.00
27368;DHT22;14839;48.106;11.618;2023-08-17T08:13:31;31.10;69.70
27368;DHT22;14839;48.106;11.618;2023-08-17T08:15:58;31.50;63.80
27368;DHT22;14839;48.106;11.618;2023-08-17T08:18:25;31.30;68.00
27368;DHT22;14839;48.106;11.618;2023-08-17T08:20:50;30.40;68.30
27368;DHT22;14839;48.106;11.618;2023-08-17T08:23:16;30.50;71.20
27368;DHT22;14839;48.106;11.618;2023-08-17T08:25:42;30.50;67.40
27368;DHT22;14839;48.106;11.618;2023-08-17T08:28:07;31.10;67.00
27368;DHT22;14839;48.106;11.618;2023-08-17T08:30:34;31.60;64.70
27368;DHT22;14839;48.106;11.618;2023-08-17T08:32:59;31.70;66.70
27368;DHT22;14839;48.106;11.618;2023-08-17T08:35:25;31.70;65.00
27368;DHT22;14839;48.106;11.618;2023-08-17T08:37:51;31.70;65.90
27368;DHT22;14839;48.106;11.618;2023-08-17T08:40:17;31.50;64.30
27368;DHT22;14839;48.106;11.618;2023-08-17T08:42:43;31.20;64.40
27368;DHT22;14839;48.106;11.618;2023-08-17T08:45:10;30.50;69.20
27368;DHT22;14839;48.106;11.618;2023-08-17T08:47:40;30.10;68.80
27368;DHT22;14839;48.106;11.618;2023-08-17T08:50:07;30.50;69.40
27368;DHT22;14839;48.106;11.618;2023-08-17T08:53:00;30.80;66.80
27368;DHT22;14839;48.106;11.618;2023-08-17T08:55:37;31.50;67.10
27368;DHT22;14839;48.106;11.618;2023-08-17T08:58:04;31.90;63.10
27368;DHT22;14839;48.106;11.618;2023-08-17T09:00:29;32.00;66.50
27368;DHT22;14839;48.106;11.618;2023-08-17T09:02:55;32.30;60.50
27368;DHT22;14839;48.106;11.618;2023-08-17T09:05:22;32.10;64.70
27368;DHT22;14839;48.106;11.618;2023-08-17T09:07:52;31.30;62.50
27368;DHT22;14839;48.106;11.618;2023-08-17T09:10:17;31.20;64.10
27368;DHT22;14839;48.106;11.618;2023-08-17T09:12:46;31.20;63.40
27368;DHT22;14839;48.106;11.618;2023-08-17T09:15:12;31.80;63.50
27368;DHT22;14839;48.106;11.618;2023-08-17T09:17:38;32.10;60.40
27368;DHT22;14839;48.106;11.618;2023-08-17T09:20:04;31.60;60.50
27368;DHT22;14839;48.106;11.618;2023-08-17T09:22:43;31.60;61.70
27368;DHT22;14839;48.106;11.618;2023-08-17T09:25:10;32.30;61.70
27368;DHT22;14839;48.106;11.618;2023-08-17T09:27:37;31.70;60.80
27368;DHT22;14839;48.106;11.618;2023-08-17T09:30:04;32.20;61.40
27368;DHT22;14839;48.106;11.618;2023-08-17T09:32:33;32.50;58.10
27368;DHT22;14839;48.106;11.618;2023-08-17T09:35:06;31.20;60.80
27368;DHT22;14839;48.106;11.618;2023-08-17T09:37:32;31.30;60.40
27368;DHT22;14839;48.106;11.618;2023-08-17T09:39:59;31.40;62.50
27368;DHT22;14839;48.106;11.618;2023-08-17T09:42:25;31.50;60.80
27368;DHT22;14839;48.106;11.618;2023-08-17T09:44:52;30.00;63.20
27368;DHT22;14839;48.106;11.618;2023-08-17T09:47:19;30.20;65.20
27368;DHT22;14839;48.106;11.618;2023-08-17T09:49:54;30.70;63.20
27368;DHT22;14839;48.106;11.618;2023-08-17T09:52:23;31.20;64.00
27368;DHT22;14839;48.106;11.618;2023-08-17T09:54:52;31.50;61.30
27368;DHT22;14839;48.106;11.618;2023-08-17T09:57:20;31.40;59.10
27368;DHT22;14839;48.106;11.618;2023-08-17T09:59:45;31.30;64.70
27368;DHT22;14839;48.106;11.618;2023-08-17T10:02:19;32.00;62.90
27368;DHT22;14839;48.106;11.618;2023-08-17T10:04:50;32.30;60.10
27368;DHT22;14839;48.106;11.618;2023-08-17T10:07:19;32.20;59.80
27368;DHT22;14839;48.106;11.618;2023-08-17T10:09:49;32.00;58.20
27368;DHT22;14839;48.106;11.618;2023-08-17T10:12:19;30.90;61.70
27368;DHT22;14839;48.106;11.618;2023-08-17T10:14:55;31.60;64.90
27368;DHT22;14839;48.106;11.618;2023-08-17T10:17:31;32.30;61.10
27368;DHT22;14839;48.106;11.618;2023-08-17T10:20:00;32.80;62.30
27368;DHT22;14839;48.106;11.618;2023-08-17T10:22:36;33.00;59.70
27368;DHT22;14839;48.106;11.618;2023-08-17T10:25:05;33.30;55.80
27368;DHT22;14839;48.106;11.618;2023-08-17T10:27:34;33.60;55.00
27368;DHT22;14839;48.106;11.618;2023-08-17T10:30:01;33.10;54.20
27368;DHT22;14839;48.106;11.618;2023-08-17T10:32:27;32.70;54.50
27368;DHT22;14839;48.106;11.618;2023-08-17T10:34:53;32.50;59.20
27368;DHT22;14839;48.106;11.618;2023-08-17T10:37:20;32.30;59.80
27368;DHT22;14839;48.106;11.618;2023-08-17T10:39:48;32.20;59.70
27368;DHT22;14839;48.106;11.618;2023-08-17T10:42:14;32.10;58.10
27368;DHT22;14839;48.106;11.618;2023-08-17T10:44:45;31.20;59.80
27368;DHT22;14839;48.106;11.618;2023-08-17T10:47:25;31.10;60.80
27368;DHT22;14839;48.106;11.618;2023-08-17T10:49:51;31.40;59.40
27368;DHT22;14839;48.106;11.618;2023-08-17T10:52:31;30.40;61.30
27368;DHT22;14839;48.106;11.618;2023-08-17T10:55:05;29.60;63.80
27368;DHT22;14839;48.106;11.618;2023-08-17T10:57:37;29.80;67.30
27368;DHT22;14839;48.106;11.618;2023-08-17T11:00:22;30.10;63.20
27368;DHT22;14839;48.106;11.618;2023-08-17T11:03:17;30.20;64.90
27368;DHT22;14839;48.106;11.618;2023-08-17T11:05:48;30.40;64.70
27368;DHT22;14839;48.106;11.618;2023-08-17T11:08:39;30.40;62.90
27368;DHT22;14839;48.106;11.618;2023-08-17T11:11:14;30.50;63.10
27368;DHT22;14839;48.106;11.618;2023-08-17T11:13:41;30.40;62.00
27368;DHT22;14839;48.106;11.618;2023-08-17T11:16:08;30.30;61.10
27368;DHT22;14839;48.106;11.618;2023-08-17T11:18:35;30.10;62.00
27368;DHT22;14839;48.106;11.618;2023-08-17T11:21:02;30.00;65.00
27368;DHT22;14839;48.106;11.618;2023-08-17T11:23:30;29.90;65.00
27368;DHT22;14839;48.106;11.618;2023-08-17T11:25:56;30.00;63.80
27368;DHT22;14839;48.106;11.618;2023-08-17T11:28:23;29.70;61.40
27368;DHT22;14839;48.106;11.618;2023-08-17T11:30:58;29.60;64.00
27368;DHT22;14839;48.106;11.618;2023-08-17T11:33:28;29.50;65.30
27368;DHT22;14839;48.106;11.618;2023-08-17T11:35:58;29.70;66.10
27368;DHT22;14839;48.106;11.618;2023-08-17T11:38:25;30.20;67.00
27368;DHT22;14839;48.106;11.618;2023-08-17T11:40:52;30.60;66.70
27368;DHT22;14839;48.106;11.618;2023-08-17T11:43:18;30.90;67.90
27368;DHT22;14839;48.106;11.618;2023-08-17T11:45:45;31.00;67.10
27368;DHT22;14839;48.106;11.618;2023-08-17T11:48:11;31.30;66.40
27368;DHT22;14839;48.106;11.618;2023-08-17T11:50:38;31.30;65.80
27368;DHT22;14839;48.106;11.618;2023-08-17T11:53:04;31.40;65.50
27368;DHT22;14839;48.106;11.618;2023-08-17T11:55:30;31.40;65.30
27368;DHT22;14839;48.106;11.618;2023-08-17T11:57:55;31.20;66.20
27368;DHT22;14839;48.106;11.618;2023-08-17T12:00:22;31.00;66.20
27368;DHT22;14839;48.106;11.618;2023-08-17T12:02:51;31.20;67.60
27368;DHT22;14839;48.106;11.618;2023-08-17T12:05:24;31.20;66.10
27368;DHT22;14839;48.106;11.618;2023-08-17T12:07:55;31.00;66.80
27368;DHT22;14839;48.106;11.618;2023-08-17T12:10:21;30.90;65.20
27368;DHT22;14839;48.106;11.618;2023-08-17T12:12:50;31.00;66.70
27368;DHT22;14839;48.106;11.618;2023-08-17T12:15:18;30.90;67.30
27368;DHT22;14839;48.106;11.618;2023-08-17T12:17:48;31.00;68.90
27368;DHT22;14839;48.106;11.618;2023-08-17T12:20:18;30.90;67.40
27368;DHT22;14839;48.106;11.618;2023-08-17T12:22:45;30.80;68.30
27368;DHT22;14839;48.106;11.618;2023-08-17T12:25:10;31.00;67.10
27368;DHT22;14839;48.106;11.618;2023-08-17T12:27:36;31.20;66.70
27368;DHT22;14839;48.106;11.618;2023-08-17T12:30:02;31.20;67.30
27368;DHT22;14839;48.106;11.618;2023-08-17T12:32:27;31.40;66.50
27368;DHT22;14839;48.106;11.618;2023-08-17T12:34:53;31.40;65.80
27368;DHT22;14839;48.106;11.618;2023-08-17T12:37:20;31.30;65.20
27368;DHT22;14839;48.106;11.618;2023-08-17T12:39:48;30.90;66.40
27368;DHT22;14839;48.106;11.618;2023-08-17T12:42:14;30.90;67.00
27368;DHT22;14839;48.106;11.618;2023-08-17T12:44:43;31.10;65.00
27368;DHT22;14839;48.106;11.618;2023-08-17T12:47:09;31.00;65.20
27368;DHT22;14839;48.106;11.618;2023-08-17T12:49:35;30.70;65.20
27368;DHT22;14839;48.106;11.618;2023-08-17T12:52:01;30.80;66.40
27368;DHT22;14839;48.106;11.618;2023-08-17T12:54:27;31.00;64.30
27368;DHT22;14839;48.106;11.618;2023-08-17T12:56:52;31.00;65.00
27368;DHT22;14839;48.106;11.618;2023-08-17T12:59:18;30.90;64.00
27368;DHT22;14839;48.106;11.618;2023-08-17T13:01:43;30.90;65.20
27368;DHT22;14839;48.106;11.618;2023-08-17T13:04:09;31.00;64.00
27368;DHT22;14839;48.106;11.618;2023-08-17T13:06:34;31.10;65.00
27368;DHT22;14839;48.106;11.618;2023-08-17T13:09:00;30.80;63.20
27368;DHT22;14839;48.106;11.618;2023-08-17T13:11:25;30.90;62.90
27368;DHT22;14839;48.106;11.618;2023-08-17T13:13:51;30.90;61.70
27368;DHT22;14839;48.106;11.618;2023-08-17T13:16:17;30.90;62.30
27368;DHT22;14839;48.106;11.618;2023-08-17T13:18:42;31.00;60.00
27368;DHT22;14839;48.106;11.618;2023-08-17T13:21:08;31.10;59.40
27368;DHT22;14839;48.106;11.618;2023-08-17T13:23:33;31.00;59.50
27368;DHT22;14839;48.106;11.618;2023-08-17T13:25:59;30.80;60.40
27368;DHT22;14839;48.106;11.618;2023-08-17T13:28:24;30.90;60.50
27368;DHT22;14839;48.106;11.618;2023-08-17T13:30:50;30.80;59.50
27368;DHT22;14839;48.106;11.618;2023-08-17T13:33:16;30.70;56.90
27368;DHT22;14839;48.106;11.618;2023-08-17T13:35:42;30.70;58.40
27368;DHT22;14839;48.106;11.618;2023-08-17T13:38:08;30.80;57.90
27368;DHT22;14839;48.106;11.618;2023-08-17T13:40:33;30.70;57.80
27368;DHT22;14839;48.106;11.618;2023-08-17T13:42:59;30.90;58.20
27368;DHT22;14839;48.106;11.618;2023-08-17T13:45:26;30.80;56.60
27368;DHT22;14839;48.106;11.618;2023-08-17T13:47:51;30.90;55.80
27368;DHT22;14839;48.106;11.618;2023-08-17T13:50:17;30.70;54.20
27368;DHT22;14839;48.106;11.618;2023-08-17T13:52:44;30.70;54.20
27368;DHT22;14839;48.106;11.618;2023-08-17T13:55:09;30.70;55.30
27368;DHT22;14839;48.106;11.618;2023-08-17T13:57:35;30.70;52.30
27368;DHT22;14839;48.106;11.618;2023-08-17T14:00:01;30.80;55.10
27368;DHT22;14839;48.106;11.618;2023-08-17T14:02:27;30.90;57.60
27368;DHT22;14839;48.106;11.618;2023-08-17T14:04:52;30.90;55.50
27368;DHT22;14839;48.106;11.618;2023-08-17T14:07:18;30.50;56.60
27368;DHT22;14839;48.106;11.618;2023-08-17T14:09:43;30.40;57.20
27368;DHT22;14839;48.106;11.618;2023-08-17T14:12:09;30.30;57.50
27368;DHT22;14839;48.106;11.618;2023-08-17T14:14:35;30.00;57.20
27368;DHT22;14839;48.106;11.618;2023-08-17T14:17:00;29.70;59.40
27368;DHT22;14839;48.106;11.618;2023-08-17T14:19:28;29.70;59.50
27368;DHT22;14839;48.106;11.618;2023-08-17T14:21:53;29.70;59.70
27368;DHT22;14839;48.106;11.618;2023-08-17T14:24:19;29.50;60.10
27368;DHT22;14839;48.106;11.618;2023-08-17T14:26:44;29.40;59.70
27368;DHT22;14839;48.106;11.618;2023-08-17T14:29:10;29.40;61.40
27368;DHT22;14839;48.106;11.618;2023-08-17T14:31:36;29.30;60.40
27368;DHT22;14839;48.106;11.618;2023-08-17T14:34:01;29.20;61.10
27368;DHT22;14839;48.106;11.618;2023-08-17T14:36:27;29.20;62.00
27368;DHT22;14839;48.106;11.618;2023-08-17T14:38:52;29.10;63.20
27368;DHT22;14839;48.106;11.618;2023-08-17T14:41:18;29.00;64.30
27368;DHT22;14839;48.106;11.618;2023-08-17T14:43:43;28.90;64.60
27368;DHT22;14839;48.106;11.618;2023-08-17T14:46:09;28.80;65.00
27368;DHT22;14839;48.106;11.618;2023-08-17T14:48:35;28.90;65.60
27368;DHT22;14839;48.106;11.618;2023-08-17T14:51:00;29.10;65.60
27368;DHT22;14839;48.106;11.618;2023-08-17T14:53:26;29.20;65.00
27368;DHT22;14839;48.106;11.618;2023-08-17T14:55:52;29.50;64.70
27368;DHT22;14839;48.106;11.618;2023-08-17T14:58:17;29.70;63.80
27368;DHT22;14839;48.106;11.618;2023-08-17T15:00:43;29.70;63.80
27368;DHT22;14839;48.106;11.618;2023-08-17T15:03:10;29.80;62.30
27368;DHT22;14839;48.106;11.618;2023-08-17T15:05:35;30.00;62.50
27368;DHT22;14839;48.106;11.618;2023-08-17T15:08:03;30.20;61.70
27368;DHT22;14839;48.106;11.618;2023-08-17T15:10:29;30.10;61.60
27368;DHT22;14839;48.106;11.618;2023-08-17T15:12:55;30.20;60.70
27368;DHT22;14839;48.106;11.618;2023-08-17T15:15:20;30.00;60.80
27368;DHT22;14839;48.106;11.618;2023-08-17T15:17:46;30.10;61.00
27368;DHT22;14839;48.106;11.618;2023-08-17T15:20:12;30.20;60.20
27368;DHT22;14839;48.106;11.618;2023-08-17T15:22:37;30.10;60.40
27368;DHT22;14839;48.106;11.618;2023-08-17T15:25:03;30.30;58.80
27368;DHT22;14839;48.106;11.618;2023-08-17T15:27:29;30.40;59.80
27368;DHT22;14839;48.106;11.618;2023-08-17T15:29:54;30.50;58.40
27368;DHT22;14839;48.106;11.618;2023-08-17T15:32:20;30.20;59.40
27368;DHT22;14839;48.106;11.618;2023-08-17T15:34:45;30.00;61.90
27368;DHT22;14839;48.106;11.618;2023-08-17T15:37:11;29.70;61.70
27368;DHT22;14839;48.106;11.618;2023-08-17T15:39:37;29.80;62.00
27368;DHT22;14839;48.106;11.618;2023-08-17T15:42:02;29.50;62.90
27368;DHT22;14839;48.106;11.618;2023-08-17T15:44:28;29.30;63.80
27368;DHT22;14839;48.106;11.618;2023-08-17T15:46:55;29.30;63.80
27368;DHT22;14839;48.106;11.618;2023-08-17T15:49:21;29.40;63.40
27368;DHT22;14839;48.106;11.618;2023-08-17T15:51:47;29.60;62.60
27368;DHT22;14839;48.106;11.618;2023-08-17T15:54:13;29.60;63.80
27368;DHT22;14839;48.106;11.618;2023-08-17T15:56:39;29.50;63.50
27368;DHT22;14839;48.106;11.618;2023-08-17T15:59:04;29.30;64.00
27368;DHT22;14839;48.106;11.618;2023-08-17T16:01:30;29.00;65.20
27368;DHT22;14839;48.106;11.618;2023-08-17T16:03:56;28.80;66.50
27368;DHT22;14839;48.106;11.618;2023-08-17T16:06:21;28.70;67.00
27368;DHT22;14839;48.106;11.618;2023-08-17T16:08:47;28.60;67.00
27368;DHT22;14839;48.106;11.618;2023-08-17T16:11:12;28.50;67.70
27368;DHT22;14839;48.106;11.618;2023-08-17T16:13:38;28.40;67.60
27368;DHT22;14839;48.106;11.618;2023-08-17T16:16:04;28.30;68.00
27368;DHT22;14839;48.106;11.618;2023-08-17T16:18:30;28.30;68.50
27368;DHT22;14839;48.106;11.618;2023-08-17T16:20:56;28.40;69.10
27368;DHT22;14839;48.106;11.618;2023-08-17T16:23:21;28.30;69.50
27368;DHT22;14839;48.106;11.618;2023-08-17T16:25:47;28.40;69.50
27368;DHT22;14839;48.106;11.618;2023-08-17T16:28:13;28.50;69.50
27368;DHT22;14839;48.106;11.618;2023-08-17T16:30:38;28.50;69.20
27368;DHT22;14839;48.106;11.618;2023-08-17T16:33:06;28.50;68.20
27368;DHT22;14839;48.106;11.618;2023-08-17T16:35:32;28.10;66.80
27368;DHT22;14839;48.106;11.618;2023-08-17T16:37:58;27.60;66.50
27368;DHT22;14839;48.106;11.618;2023-08-17T16:40:23;27.00;67.30
27368;DHT22;14839;48.106;11.618;2023-08-17T16:42:49;26.50;68.20
27368;DHT22;14839;48.106;11.618;2023-08-17T16:45:15;26.10;68.90
27368;DHT22;14839;48.106;11.618;2023-08-17T16:47:43;25.70;70.90
27368;DHT22;14839;48.106;11.618;2023-08-17T16:50:10;25.40;71.80
27368;DHT22;14839;48.106;11.618;2023-08-17T16:52:35;25.20;72.40
27368;DHT22;14839;48.106;11.618;2023-08-17T16:55:01;24.90;74.20
27368;DHT22;14839;48.106;11.618;2023-08-17T16:57:26;24.60;75.40
27368;DHT22;14839;48.106;11.618;2023-08-17T16:59:52;24.40;76.30
27368;DHT22;14839;48.106;11.618;2023-08-17T17:02:17;24.20;77.90
27368;DHT22;14839;48.106;11.618;2023-08-17T17:04:43;23.80;78.70
27368;DHT22;14839;48.106;11.618;2023-08-17T17:07:09;23.60;80.20
27368;DHT22;14839;48.106;11.618;2023-08-17T17:09:35;23.50;80.80
27368;DHT22;14839;48.106;11.618;2023-08-17T17:12:02;23.30;80.80
27368;DHT22;14839;48.106;11.618;2023-08-17T17:14:28;23.10;83.20
27368;DHT22;14839;48.106;11.618;2023-08-17T17:16:53;23.00;85.10
27368;DHT22;14839;48.106;11.618;2023-08-17T17:19:19;22.70;86.20
27368;DHT22;14839;48.106;11.618;2023-08-17T17:21:44;22.50;86.50
27368;DHT22;14839;48.106;11.618;2023-08-17T17:24:10;22.40;86.30
27368;DHT22;14839;48.106;11.618;2023-08-17T17:26:36;22.30;85.90
27368;DHT22;14839;48.106;11.618;2023-08-17T17:29:06;22.20;85.90
27368;DHT22;14839;48.106;11.618;2023-08-17T17:31:33;22.10;86.90
27368;DHT22;14839;48.106;11.618;2023-08-17T17:33:59;21.90;87.70
27368;DHT22;14839;48.106;11.618;2023-08-17T17:36:25;21.80;88.30
27368;DHT22;14839;48.106;11.618;2023-08-17T17:38:52;21.80;87.70
27368;DHT22;14839;48.106;11.618;2023-08-17T17:41:18;21.80;85.70
27368;DHT22;14839;48.106;11.618;2023-08-17T17:43:43;21.90;86.20
27368;DHT22;14839;48.106;11.618;2023-08-17T17:46:09;21.90;87.40
27368;DHT22;14839;48.106;11.618;2023-08-17T17:48:34;22.00;88.90
27368;DHT22;14839;48.106;11.618;2023-08-17T17:51:00;22.00;89.30
27368;DHT22;14839;48.106;11.618;2023-08-17T17:53:26;21.90;89.60
27368;DHT22;14839;48.106;11.618;2023-08-17T17:55:51;21.90;89.90
27368;DHT22;14839;48.106;11.618;2023-08-17T17:58:17;21.90;89.00
27368;DHT22;14839;48.106;11.618;2023-08-17T18:00:42;21.80;89.20
27368;DHT22;14839;48.106;11.618;2023-08-17T18:03:10;21.80;89.30
27368;DHT22;14839;48.106;11.618;2023-08-17T18:05:37;21.80;89.20
27368;DHT22;14839;48.106;11.618;2023-08-17T18:08:02;21.80;89.60
27368;DHT22;14839;48.106;11.618;2023-08-17T18:10:28;21.70;89.60
27368;DHT22;14839;48.106;11.618;2023-08-17T18:12:54;21.70;89.30
27368;DHT22;14839;48.106;11.618;2023-08-17T18:15:19;21.60;90.10
27368;DHT22;14839;48.106;11.618;2023-08-17T18:17:45;21.60;90.20
27368;DHT22;14839;48.106;11.618;2023-08-17T18:20:11;21.60;90.80
27368;DHT22;14839;48.106;11.618;2023-08-17T18:22:38;21.50;90.90
27368;DHT22;14839;48.106;11.618;2023-08-17T18:25:04;21.40;91.20
27368;DHT22;14839;48.106;11.618;2023-08-17T18:27:30;21.30;91.70
27368;DHT22;14839;48.106;11.618;2023-08-17T18:29:56;21.20;92.30
27368;DHT22;14839;48.106;11.618;2023-08-17T18:32:21;21.10;93.30
27368;DHT22;14839;48.106;11.618;2023-08-17T18:34:47;21.00;94.00
27368;DHT22;14839;48.106;11.618;2023-08-17T18:37:13;20.90;94.50
27368;DHT22;14839;48.106;11.618;2023-08-17T18:39:39;20.90;94.60
27368;DHT22;14839;48.106;11.618;2023-08-17T18:42:04;20.80;94.60
27368;DHT22;14839;48.106;11.618;2023-08-17T18:44:30;20.80;94.60
27368;DHT22;14839;48.106;11.618;2023-08-17T18:46:55;20.80;94.60
27368;DHT22;14839;48.106;11.618;2023-08-17T18:49:21;20.70;94.60
27368;DHT22;14839;48.106;11.618;2023-08-17T18:51:47;20.70;94.60
27368;DHT22;14839;48.106;11.618;2023-08-17T18:54:12;20.60;94.60
27368;DHT22;14839;48.106;11.618;2023-08-17T18:56:38;20.60;94.60
27368;DHT22;14839;48.106;11.618;2023-08-17T18:59:04;20.50;94.60
27368;DHT22;14839;48.106;11.618;2023-08-17T19:01:29;20.50;94.60
27368;DHT22;14839;48.106;11.618;2023-08-17T19:03:55;20.50;94.60
27368;DHT22;14839;48.106;11.618;2023-08-17T19:06:21;20.40;94.60
27368;DHT22;14839;48.106;11.618;2023-08-17T19:08:47;20.30;94.60
27368;DHT22;14839;48.106;11.618;2023-08-17T19:11:12;20.30;94.60